Time;durP1;ratioP1;P1;durP2;ratioP2;P2;SDS_P1;SDS_P2;PMS_P1;PMS_P2;Temp;Humidity;BMP_temperature;BMP_pressure;BME280_temperature;BME280_humidity;BME280_pressure;Samples;Min_cycle;Max_cycle;Signal;HPM_P1;HPM_P2
2022/10/14 00:02:24;;;;;;;9.90;6.55;;;;;;;;;;5014066;28;20120;-81
2022/10/14 00:04:49;;;;;;;10.70;7.70;;;;;;;;;;5014409;28;20029;-81
2022/10/14 00:07:15;;;;;;;8.43;6.20;;;;;;;;;;5031517;28;20033;-81
2022/10/14 00:09:41;;;;;;;9.23;6.82;;;;;;;;;;5031270;28;20033;-81
2022/10/14 00:12:06;;;;;;;8.60;5.93;;;;;;;;;;5032920;28;20491;-81
2022/10/14 00:14:32;;;;;;;8.30;6.65;;;;;;;;;;5032776;28;20042;-81
2022/10/14 00:16:57;;;;;;;8.55;6.35;;;;;;;;;;5031483;28;20496;-81
2022/10/14 00:19:22;;;;;;;7.68;6.15;;;;;;;;;;5032718;28;20207;-80
2022/10/14 00:21:48;;;;;;;7.20;6.32;;;;;;;;;;5031387;28;20030;-80
2022/10/14 00:24:15;;;;;;;7.85;5.68;;;;;;;;;;5031361;28;20061;-80
2022/10/14 00:26:41;;;;;;;8.07;6.03;;;;;;;;;;5031273;28;20029;-80
2022/10/14 00:29:13;;;;;;;7.43;6.20;;;;;;;;;;5031030;28;20025;-80
2022/10/14 00:31:38;;;;;;;9.05;6.40;;;;;;;;;;5014797;28;20500;-80
2022/10/14 00:34:04;;;;;;;8.32;6.35;;;;;;;;;;5031357;28;20117;-80
2022/10/14 00:36:29;;;;;;;6.80;5.72;;;;;;;;;;5031463;28;20433;-80
2022/10/14 00:38:55;;;;;;;9.13;7.00;;;;;;;;;;5031133;28;20109;-80
2022/10/14 00:41:26;;;;;;;8.25;6.53;;;;;;;;;;5031276;28;20063;-80
2022/10/14 00:44:10;;;;;;;7.30;5.97;;;;;;;;;;5031045;28;20468;-80
2022/10/14 00:46:43;;;;;;;6.78;5.72;;;;;;;;;;5032202;28;20522;-80
2022/10/14 00:49:26;;;;;;;9.05;6.95;;;;;;;;;;5032355;28;20034;-80
2022/10/14 00:51:58;;;;;;;8.73;6.30;;;;;;;;;;5030690;28;20041;-80
2022/10/14 00:54:27;;;;;;;8.15;6.32;;;;;;;;;;5031132;28;20108;-80
2022/10/14 00:56:52;;;;;;;8.90;6.30;;;;;;;;;;5031284;28;20056;-80
2022/10/14 00:59:17;;;;;;;8.20;6.45;;;;;;;;;;5033803;28;20134;-80
2022/10/14 01:01:43;;;;;;;7.90;5.70;;;;;;;;;;5034566;28;20021;-80
2022/10/14 01:04:09;;;;;;;8.93;6.90;;;;;;;;;;5035944;28;20480;-81
2022/10/14 01:06:46;;;;;;;9.05;6.32;;;;;;;;;;5017871;28;20163;-80
2022/10/14 01:09:49;;;;;;;6.45;5.55;;;;;;;;;;5034466;28;20021;-80
2022/10/14 01:12:45;;;;;;;8.40;6.43;;;;;;;;;;5016603;28;20439;-81
2022/10/14 01:15:24;;;;;;;8.50;6.18;;;;;;;;;;5035720;28;20036;-80
2022/10/14 01:18:16;;;;;;;10.45;6.75;;;;;;;;;;5034196;28;20032;-79
2022/10/14 01:21:00;;;;;;;10.95;7.53;;;;;;;;;;5034444;28;20460;-81
2022/10/14 01:23:31;;;;;;;;;;;;;;;;;;5036296;28;20044;-81
2022/10/14 01:26:21;;;;;;;9.10;6.45;;;;;;;;;;5035469;28;19959;-81
2022/10/14 01:29:28;;;;;;;9.57;6.90;;;;;;;;;;5035329;28;20444;-81
2022/10/14 01:32:00;;;;;;;9.50;7.18;;;;;;;;;;5031413;28;20053;-81
2022/10/14 01:34:31;;;;;;;12.07;6.72;;;;;;;;;;5034019;28;20021;-81
2022/10/14 01:37:01;;;;;;;10.90;8.20;;;;;;;;;;5034110;28;20021;-81
2022/10/14 01:39:32;;;;;;;9.38;6.80;;;;;;;;;;5033839;28;20096;-81
2022/10/14 01:42:19;;;;;;;9.48;6.97;;;;;;;;;;5034644;28;20021;-80
2022/10/14 01:44:58;;;;;;;9.90;7.18;;;;;;;;;;5017258;28;20026;-80
2022/10/14 01:47:25;;;;;;;10.57;7.32;;;;;;;;;;5033953;28;20116;-80
2022/10/14 01:49:55;;;;;;;9.30;6.65;;;;;;;;;;5034070;28;20032;-80
2022/10/14 01:52:26;;;;;;;10.05;7.05;;;;;;;;;;5033389;28;20037;-80
2022/10/14 01:54:53;;;;;;;10.82;7.78;;;;;;;;;;5035197;28;20029;-80
2022/10/14 01:57:23;;;;;;;9.88;7.40;;;;;;;;;;5017003;28;20030;-80
2022/10/14 01:59:51;;;;;;;12.20;6.80;;;;;;;;;;5016894;28;20072;-80
2022/10/14 02:02:17;;;;;;;10.45;7.05;;;;;;;;;;5033704;28;20388;-80
2022/10/14 02:04:42;;;;;;;10.32;6.97;;;;;;;;;;5033416;28;20030;-81
2022/10/14 02:07:13;;;;;;;10.70;7.40;;;;;;;;;;5016942;28;20091;-80
2022/10/14 02:09:54;;;;;;;10.38;6.72;;;;;;;;;;5032635;28;20396;-81
2022/10/14 02:12:50;;;;;;;9.07;6.65;;;;;;;;;;5032989;28;20083;-80
2022/10/14 02:15:28;;;;;;;9.85;6.90;;;;;;;;;;5033018;28;20075;-80
2022/10/14 02:18:08;;;;;;;11.20;6.53;;;;;;;;;;5033020;28;20036;-80
2022/10/14 02:20:39;;;;;;;10.63;6.05;;;;;;;;;;5033150;28;20342;-81
2022/10/14 02:23:12;;;;;;;8.18;6.00;;;;;;;;;;5016543;28;20072;-81
2022/10/14 02:25:39;;;;;;;8.47;6.17;;;;;;;;;;5032918;28;20395;-80
2022/10/14 02:28:07;;;;;;;8.77;6.05;;;;;;;;;;5033030;28;20189;-80
2022/10/14 02:30:37;;;;;;;7.95;5.70;;;;;;;;;;5033950;28;20033;-81
2022/10/14 02:33:03;;;;;;;8.40;6.00;;;;;;;;;;5033028;28;20043;-80
2022/10/14 02:35:29;;;;;;;6.90;5.65;;;;;;;;;;5016293;28;20028;-80
2022/10/14 02:37:56;;;;;;;7.40;5.38;;;;;;;;;;5032878;28;20022;-81
2022/10/14 02:40:27;;;;;;;8.80;6.07;;;;;;;;;;5016066;28;20186;-81
2022/10/14 02:42:53;;;;;;;8.13;6.22;;;;;;;;;;5032863;28;20403;-81
2022/10/14 02:45:18;;;;;;;7.47;5.65;;;;;;;;;;5034041;28;20033;-81
2022/10/14 02:47:44;;;;;;;11.35;6.07;;;;;;;;;;5033781;28;20037;-81
2022/10/14 02:50:10;;;;;;;7.25;5.32;;;;;;;;;;5033716;28;20041;-81
2022/10/14 02:52:35;;;;;;;8.00;5.65;;;;;;;;;;5033427;28;20052;-81
2022/10/14 02:55:00;;;;;;;8.43;5.90;;;;;;;;;;5032612;28;20037;-81
2022/10/14 02:57:26;;;;;;;6.70;5.30;;;;;;;;;;5032322;28;20468;-80
2022/10/14 02:59:51;;;;;;;7.35;5.38;;;;;;;;;;5033735;28;20048;-80
2022/10/14 03:02:16;;;;;;;11.18;5.35;;;;;;;;;;5033855;28;20338;-80
2022/10/14 03:04:42;;;;;;;6.55;5.20;;;;;;;;;;5032441;28;20448;-80
2022/10/14 03:07:07;;;;;;;8.20;5.30;;;;;;;;;;5032157;28;20044;-81
2022/10/14 03:09:32;;;;;;;10.00;5.13;;;;;;;;;;5032650;28;20052;-80
2022/10/14 03:11:58;;;;;;;7.35;5.10;;;;;;;;;;5015365;28;20041;-80
2022/10/14 03:14:23;;;;;;;8.68;5.63;;;;;;;;;;5033932;28;20342;-80
2022/10/14 03:16:49;;;;;;;6.93;5.00;;;;;;;;;;5031831;28;20433;-81
2022/10/14 03:19:14;;;;;;;8.68;5.30;;;;;;;;;;4999209;28;20033;-81
2022/10/14 03:21:39;;;;;;;5.80;4.43;;;;;;;;;;5032635;28;20101;-80
2022/10/14 03:24:05;;;;;;;5.90;4.50;;;;;;;;;;5033378;28;20029;-80
2022/10/14 03:26:30;;;;;;;6.93;4.88;;;;;;;;;;5032091;28;20439;-80
2022/10/14 03:28:56;;;;;;;5.75;4.90;;;;;;;;;;5033219;28;20025;-81
2022/10/14 03:31:21;;;;;;;6.22;5.10;;;;;;;;;;5031805;28;20380;-81
2022/10/14 03:33:47;;;;;;;6.57;4.80;;;;;;;;;;5033041;28;20100;-80
2022/10/14 03:36:12;;;;;;;6.15;5.18;;;;;;;;;;5032060;28;20092;-80
2022/10/14 03:38:37;;;;;;;6.13;4.70;;;;;;;;;;5032145;28;20527;-80
2022/10/14 03:41:03;;;;;;;6.47;5.03;;;;;;;;;;5031636;28;20033;-81
2022/10/14 03:43:29;;;;;;;6.88;4.70;;;;;;;;;;5031947;28;20415;-81
2022/10/14 03:45:54;;;;;;;5.90;4.47;;;;;;;;;;5031630;28;20029;-80
2022/10/14 03:48:19;;;;;;;6.25;4.82;;;;;;;;;;5032987;28;20033;-81
2022/10/14 03:50:48;;;;;;;7.95;4.55;;;;;;;;;;5031467;28;20484;-80
2022/10/14 03:53:13;;;;;;;6.45;4.78;;;;;;;;;;5032527;28;20488;-81
2022/10/14 03:55:39;;;;;;;6.10;4.82;;;;;;;;;;5032881;28;20227;-80
2022/10/14 03:58:05;;;;;;;5.72;4.55;;;;;;;;;;5031838;28;20029;-80
2022/10/14 04:00:30;;;;;;;4.90;4.07;;;;;;;;;;5031670;28;20025;-81
2022/10/14 04:02:56;;;;;;;6.20;4.90;;;;;;;;;;5031248;28;20030;-80
2022/10/14 04:05:21;;;;;;;7.13;5.07;;;;;;;;;;5032686;28;20471;-81
2022/10/14 04:07:46;;;;;;;5.38;4.63;;;;;;;;;;5031426;28;20026;-81
2022/10/14 04:10:12;;;;;;;8.23;5.55;;;;;;;;;;5031699;28;20091;-81
2022/10/14 04:12:39;;;;;;;6.75;5.13;;;;;;;;;;5032710;28;20057;-80
2022/10/14 04:15:08;;;;;;;6.47;4.97;;;;;;;;;;5015326;28;20022;-79
2022/10/14 04:17:33;;;;;;;7.03;5.40;;;;;;;;;;5031492;28;20033;-80
2022/10/14 04:19:58;;;;;;;6.75;5.15;;;;;;;;;;5031199;28;20033;-80
2022/10/14 04:22:24;;;;;;;7.38;5.38;;;;;;;;;;5032412;28;20083;-81
2022/10/14 04:24:49;;;;;;;15.32;6.68;;;;;;;;;;5032877;28;20083;-81
2022/10/14 04:27:15;;;;;;;12.65;6.38;;;;;;;;;;5031475;28;20045;-82
2022/10/14 04:29:41;;;;;;;13.32;6.70;;;;;;;;;;5015017;28;20037;-83
2022/10/14 04:32:06;;;;;;;15.57;6.70;;;;;;;;;;5015576;28;20377;-83
2022/10/14 04:34:31;;;;;;;12.52;6.53;;;;;;;;;;5039918;28;20029;-83
2022/10/14 04:36:57;;;;;;;20.23;7.43;;;;;;;;;;5039453;28;20064;-83
2022/10/14 04:39:22;;;;;;;15.82;6.35;;;;;;;;;;5037039;28;20033;-83
2022/10/14 04:41:47;;;;;;;13.98;6.80;;;;;;;;;;5035306;28;20033;-84
2022/10/14 04:44:13;;;;;;;16.60;6.00;;;;;;;;;;5035046;28;20451;-83
2022/10/14 04:46:38;;;;;;;12.98;6.40;;;;;;;;;;5034809;28;20091;-82
2022/10/14 04:49:03;;;;;;;13.45;6.30;;;;;;;;;;5036333;28;20030;-82
2022/10/14 04:51:29;;;;;;;15.55;6.40;;;;;;;;;;5035986;28;20064;-82
2022/10/14 04:53:56;;;;;;;10.93;6.45;;;;;;;;;;5018244;28;20053;-82
2022/10/14 04:56:21;;;;;;;16.83;6.22;;;;;;;;;;5034978;28;20033;-82
2022/10/14 04:58:46;;;;;;;12.18;6.70;;;;;;;;;;5035827;28;20082;-82
2022/10/14 05:01:12;;;;;;;14.48;6.35;;;;;;;;;;5034693;28;20033;-82
2022/10/14 05:03:37;;;;;;;16.13;7.47;;;;;;;;;;5034734;28;20029;-83
2022/10/14 05:06:03;;;;;;;17.75;6.05;;;;;;;;;;5035956;28;20029;-82
2022/10/14 05:08:28;;;;;;;11.27;6.00;;;;;;;;;;5034510;28;20036;-86
2022/10/14 05:10:53;;;;;;;14.43;5.85;;;;;;;;;;5018154;28;20100;-86
2022/10/14 05:13:19;;;;;;;10.48;5.75;;;;;;;;;;5035681;28;20092;-83
2022/10/14 05:15:44;;;;;;;14.07;5.93;;;;;;;;;;5053261;28;20032;-83
2022/10/14 05:18:10;;;;;;;13.35;7.00;;;;;;;;;;5037239;28;20125;-81
2022/10/14 05:20:37;;;;;;;24.67;7.63;;;;;;;;;;5038626;28;20037;-82
2022/10/14 05:23:03;;;;;;;14.18;6.38;;;;;;;;;;5037493;28;20026;-81
2022/10/14 05:25:29;;;;;;;13.65;7.43;;;;;;;;;;5037632;28;20029;-81
2022/10/14 05:27:54;;;;;;;14.30;7.25;;;;;;;;;;5035864;28;20377;-82
2022/10/14 05:30:19;;;;;;;14.63;7.10;;;;;;;;;;5036484;28;20036;-82
2022/10/14 05:32:45;;;;;;;20.85;6.97;;;;;;;;;;5036927;28;20487;-82
2022/10/14 05:35:10;;;;;;;12.35;7.32;;;;;;;;;;5037690;28;20045;-82
2022/10/14 05:37:35;;;;;;;11.45;6.10;;;;;;;;;;5035980;28;20030;-82
2022/10/14 05:40:01;;;;;;;14.43;7.38;;;;;;;;;;5020024;28;20026;-81
2022/10/14 05:42:26;;;;;;;12.77;6.53;;;;;;;;;;5035641;28;20152;-81
2022/10/14 05:44:52;;;;;;;11.38;7.28;;;;;;;;;;5034850;28;20037;-81
2022/10/14 05:47:17;;;;;;;13.27;7.30;;;;;;;;;;5036210;28;20031;-82
2022/10/14 05:49:42;;;;;;;22.00;8.27;;;;;;;;;;5037929;28;20038;-79
2022/10/14 05:52:08;;;;;;;18.63;7.38;;;;;;;;;;5036604;28;20057;-80
2022/10/14 05:54:33;;;;;;;10.77;7.15;;;;;;;;;;5037300;28;20025;-80
2022/10/14 05:56:59;;;;;;;12.75;7.32;;;;;;;;;;5035732;28;20033;-80
2022/10/14 05:59:24;;;;;;;12.38;7.45;;;;;;;;;;5037310;28;20029;-80
2022/10/14 06:01:49;;;;;;;11.60;7.32;;;;;;;;;;5002068;28;20088;-80
2022/10/14 06:04:19;;;;;;;10.57;6.78;;;;;;;;;;5037146;28;20034;-80
2022/10/14 06:06:44;;;;;;;10.32;6.88;;;;;;;;;;5035109;28;20029;-80
2022/10/14 06:09:10;;;;;;;10.75;7.05;;;;;;;;;;5035194;28;20037;-80
2022/10/14 06:11:35;;;;;;;15.55;8.05;;;;;;;;;;5037131;28;20037;-80
2022/10/14 06:14:01;;;;;;;11.88;7.15;;;;;;;;;;5035334;28;20026;-80
2022/10/14 06:16:26;;;;;;;13.45;7.05;;;;;;;;;;5036504;28;20472;-80
2022/10/14 06:18:51;;;;;;;12.82;8.25;;;;;;;;;;5034370;28;20056;-81
2022/10/14 06:21:17;;;;;;;10.95;7.50;;;;;;;;;;5034333;28;20021;-81
2022/10/14 06:23:42;;;;;;;11.35;7.43;;;;;;;;;;5034101;28;20442;-81
2022/10/14 06:26:10;;;;;;;9.95;7.07;;;;;;;;;;5034076;28;20034;-81
2022/10/14 06:28:36;;;;;;;11.70;7.38;;;;;;;;;;5033943;28;20056;-80
2022/10/14 06:31:02;;;;;;;13.15;8.02;;;;;;;;;;5033893;28;20080;-81
2022/10/14 06:33:28;;;;;;;9.85;7.38;;;;;;;;;;5017631;28;20030;-81
2022/10/14 06:35:54;;;;;;;9.45;7.00;;;;;;;;;;5034055;28;20044;-81
2022/10/14 06:38:19;;;;;;;8.95;6.93;;;;;;;;;;5034253;28;20033;-80
2022/10/14 06:40:45;;;;;;;9.45;7.25;;;;;;;;;;5034876;28;20034;-80
2022/10/14 06:43:10;;;;;;;11.13;7.68;;;;;;;;;;5017860;28;20030;-81
2022/10/14 06:45:35;;;;;;;9.50;6.90;;;;;;;;;;5034274;28;20053;-84
2022/10/14 06:48:03;;;;;;;10.95;7.25;;;;;;;;;;5035369;28;20033;-81
2022/10/14 06:50:28;;;;;;;11.88;6.78;;;;;;;;;;5033900;28;20026;-81
2022/10/14 06:52:53;;;;;;;15.13;8.75;;;;;;;;;;5014425;28;20053;-81
2022/10/14 06:55:19;;;;;;;20.23;8.23;;;;;;;;;;5001044;28;20181;-80
2022/10/14 06:57:44;;;;;;;16.23;8.43;;;;;;;;;;5033041;28;20040;-80
2022/10/14 07:00:10;;;;;;;15.43;8.25;;;;;;;;;;5016977;28;20124;-81
2022/10/14 07:02:38;;;;;;;13.40;8.25;;;;;;;;;;5034559;28;20025;-79
2022/10/14 07:05:04;;;;;;;15.30;8.18;;;;;;;;;;5034408;28;20025;-80
2022/10/14 07:07:33;;;;;;;18.75;8.00;;;;;;;;;;5033023;28;20033;-81
2022/10/14 07:09:58;;;;;;;12.13;7.15;;;;;;;;;;5016662;28;20034;-81
2022/10/14 07:12:29;;;;;;;13.30;7.80;;;;;;;;;;5033641;28;20041;-83
2022/10/14 07:14:55;;;;;;;13.38;7.40;;;;;;;;;;5032778;28;20029;-82
2022/10/14 07:17:21;;;;;;;9.85;6.63;;;;;;;;;;5032980;28;20495;-82
2022/10/14 07:19:46;;;;;;;9.93;6.60;;;;;;;;;;5032811;28;20044;-83
2022/10/14 07:22:11;;;;;;;10.07;6.57;;;;;;;;;;5016394;28;20033;-81
2022/10/14 07:24:37;;;;;;;10.90;7.30;;;;;;;;;;5032702;28;20120;-81
2022/10/14 07:27:14;;;;;;;13.23;6.88;;;;;;;;;;5036573;28;20029;-80
2022/10/14 07:29:41;;;;;;;16.33;6.57;;;;;;;;;;5032848;28;20484;-80
2022/10/14 07:32:07;;;;;;;12.27;6.63;;;;;;;;;;5031422;28;20056;-80
2022/10/14 07:34:33;;;;;;;9.77;5.82;;;;;;;;;;5040669;28;20028;-79
2022/10/14 07:36:59;;;;;;;10.38;6.05;;;;;;;;;;5029335;28;20104;-79
2022/10/14 07:39:26;;;;;;;9.65;5.60;;;;;;;;;;5016790;28;20119;-78
2022/10/14 07:41:52;;;;;;;14.02;6.18;;;;;;;;;;5032622;28;20022;-79
2022/10/14 07:44:20;;;;;;;9.77;5.90;;;;;;;;;;5034725;28;20107;-79
2022/10/14 07:46:46;;;;;;;9.00;5.82;;;;;;;;;;5020382;28;20029;-79
2022/10/14 07:49:19;;;;;;;9.65;6.05;;;;;;;;;;5016061;28;20021;-78
2022/10/14 07:51:45;;;;;;;14.75;6.15;;;;;;;;;;5015788;28;20104;-79
2022/10/14 07:54:17;;;;;;;16.70;5.80;;;;;;;;;;5013282;28;20060;-82
2022/10/14 07:56:43;;;;;;;12.63;5.25;;;;;;;;;;5012692;28;20022;-79
2022/10/14 07:59:09;;;;;;;13.95;5.35;;;;;;;;;;5014312;28;20030;-79
2022/10/14 08:01:34;;;;;;;8.68;4.95;;;;;;;;;;5013772;28;20041;-79
2022/10/14 08:04:00;;;;;;;8.77;4.55;;;;;;;;;;4996067;28;20507;-82
2022/10/14 08:06:25;;;;;;;10.98;5.30;;;;;;;;;;5014129;28;20037;-80
2022/10/14 08:08:51;;;;;;;16.60;5.35;;;;;;;;;;4979314;28;20037;-78
2022/10/14 08:11:22;;;;;;;10.15;4.72;;;;;;;;;;5012709;28;20472;-79
2022/10/14 08:13:47;;;;;;;10.02;4.63;;;;;;;;;;5012561;28;20492;-78
2022/10/14 08:16:17;;;;;;;15.95;4.97;;;;;;;;;;5012664;28;20026;-79
2022/10/14 08:18:44;;;;;;;8.85;5.05;;;;;;;;;;5013060;28;20104;-79
2022/10/14 08:21:09;;;;;;;12.65;4.90;;;;;;;;;;5012328;28;20032;-78
2022/10/14 08:23:34;;;;;;;11.23;5.10;;;;;;;;;;5013556;28;20022;-79
2022/10/14 08:26:00;;;;;;;7.50;4.93;;;;;;;;;;4995904;28;20037;-79
2022/10/14 08:28:25;;;;;;;13.10;5.55;;;;;;;;;;5012566;28;20029;-78
2022/10/14 08:30:52;;;;;;;12.00;5.30;;;;;;;;;;5012270;28;20041;-80
2022/10/14 08:33:17;;;;;;;11.73;5.07;;;;;;;;;;4995921;28;20040;-79
2022/10/14 08:35:43;;;;;;;13.20;6.07;;;;;;;;;;5012437;28;20109;-80
2022/10/14 08:38:08;;;;;;;13.88;5.28;;;;;;;;;;5013784;28;20473;-81
2022/10/14 08:41:06;;;;;;;18.27;5.25;;;;;;;;;;4995841;28;20040;-78
2022/10/14 08:43:32;;;;;;;16.77;5.25;;;;;;;;;;5009479;28;20033;-80
2022/10/14 08:46:17;;;;;;;11.80;5.32;;;;;;;;;;4995632;28;20473;-81
2022/10/14 08:48:44;;;;;;;13.75;5.20;;;;;;;;;;5012342;28;20025;-83
2022/10/14 08:51:12;;;;;;;10.88;4.60;;;;;;;;;;4995840;28;20083;-79
2022/10/14 08:53:45;;;;;;;7.78;5.20;;;;;;;;;;5027055;28;20050;-80
2022/10/14 08:56:12;;;;;;;13.23;4.93;;;;;;;;;;5031664;28;20025;-81
2022/10/14 08:58:51;;;;;;;15.30;5.05;;;;;;;;;;5031665;28;20464;-80
2022/10/14 09:01:28;;;;;;;14.45;5.30;;;;;;;;;;5032026;28;20087;-80
2022/10/14 09:04:14;;;;;;;16.92;6.88;;;;;;;;;;5031618;28;20029;-81
2022/10/14 09:06:42;;;;;;;15.13;5.18;;;;;;;;;;5015051;28;20038;-80
2022/10/14 09:09:13;;;;;;;10.95;5.05;;;;;;;;;;5031518;28;20076;-81
2022/10/14 09:11:41;;;;;;;15.50;5.75;;;;;;;;;;5032674;28;20500;-80
2022/10/14 09:14:09;;;;;;;22.95;6.10;;;;;;;;;;5031722;28;20040;-79
2022/10/14 09:16:36;;;;;;;14.75;5.20;;;;;;;;;;5031541;28;20033;-80
2022/10/14 09:19:14;;;;;;;16.15;5.35;;;;;;;;;;5015240;28;20024;-84
2022/10/14 09:21:46;;;;;;;13.90;5.63;;;;;;;;;;5034617;28;20082;-80
2022/10/14 09:24:14;;;;;;;16.73;6.22;;;;;;;;;;5018518;28;20131;-83
2022/10/14 09:26:41;;;;;;;11.98;5.70;;;;;;;;;;5033328;28;20033;-83
2022/10/14 09:29:29;;;;;;;14.00;5.65;;;;;;;;;;5034080;28;20014;-83
2022/10/14 09:32:06;;;;;;;13.15;4.90;;;;;;;;;;5015446;28;20029;-83
2022/10/14 09:34:45;;;;;;;24.40;5.00;;;;;;;;;;5034809;28;20021;-82
2022/10/14 09:37:25;;;;;;;12.20;5.05;;;;;;;;;;5034696;28;20037;-82
2022/10/14 09:39:53;;;;;;;9.40;5.00;;;;;;;;;;5034615;28;20025;-81
2022/10/14 09:42:21;;;;;;;13.48;5.03;;;;;;;;;;5034654;28;20028;-81
2022/10/14 09:45:12;;;;;;;19.77;5.05;;;;;;;;;;5035126;28;20375;-81
2022/10/14 09:47:44;;;;;;;11.05;4.68;;;;;;;;;;5031895;28;20041;-81
2022/10/14 09:50:18;;;;;;;15.13;4.65;;;;;;;;;;5034586;28;20051;-81
2022/10/14 09:52:49;;;;;;;19.83;5.40;;;;;;;;;;5034109;28;20399;-81
2022/10/14 09:55:19;;;;;;;14.63;5.30;;;;;;;;;;5034468;28;20025;-81
2022/10/14 09:57:44;;;;;;;11.93;4.95;;;;;;;;;;5034415;28;20029;-81
2022/10/14 10:00:24;;;;;;;13.23;4.95;;;;;;;;;;5034564;28;20136;-81
2022/10/14 10:02:51;;;;;;;16.17;4.13;;;;;;;;;;5035090;28;20124;-81
2022/10/14 10:05:25;;;;;;;8.15;3.92;;;;;;;;;;5035482;28;20051;-81
2022/10/14 10:08:12;;;;;;;7.72;4.10;;;;;;;;;;5034226;28;20112;-81
2022/10/14 10:10:38;;;;;;;8.88;4.03;;;;;;;;;;5035529;28;20384;-81
2022/10/14 10:13:21;;;;;;;10.68;4.25;;;;;;;;;;5033954;28;20030;-81
2022/10/14 10:16:03;;;;;;;10.48;3.75;;;;;;;;;;5032417;28;20029;-82
2022/10/14 10:18:28;;;;;;;9.50;3.35;;;;;;;;;;5015790;28;20395;-82
2022/10/14 10:21:05;;;;;;;6.53;3.42;;;;;;;;;;4997795;28;20088;-81
2022/10/14 10:23:33;;;;;;;10.60;3.75;;;;;;;;;;5014132;28;20026;-81
2022/10/14 10:26:17;;;;;;;7.13;3.33;;;;;;;;;;5014013;28;20033;-81
2022/10/14 10:28:47;;;;;;;10.25;3.50;;;;;;;;;;4997600;28;20087;-83
2022/10/14 10:31:27;;;;;;;7.85;3.67;;;;;;;;;;5014934;28;20044;-81
2022/10/14 10:34:13;;;;;;;11.82;3.28;;;;;;;;;;4997613;28;20449;-81
2022/10/14 10:36:49;;;;;;;9.23;3.45;;;;;;;;;;5015287;28;20057;-81
2022/10/14 10:39:33;;;;;;;8.88;3.47;;;;;;;;;;5014088;28;20049;-81
2022/10/14 10:42:02;;;;;;;;;;;;;;;;;;5014117;28;20029;-82
2022/10/14 10:44:57;;;;;;;5.10;2.90;;;;;;;;;;5014700;28;19913;-82
2022/10/14 10:47:34;;;;;;;7.55;4.03;;;;;;;;;;5014818;28;20036;-82
2022/10/14 10:50:28;;;;;;;6.25;3.63;;;;;;;;;;5014842;28;20119;-82
2022/10/14 10:53:14;;;;;;;6.70;3.33;;;;;;;;;;5014709;28;20078;-81
2022/10/14 10:55:53;;;;;;;4.95;3.40;;;;;;;;;;5014988;28;20421;-81
2022/10/14 10:58:23;;;;;;;8.88;3.35;;;;;;;;;;5014762;28;20033;-81
2022/10/14 11:01:09;;;;;;;8.40;3.22;;;;;;;;;;5013258;28;20370;-81
2022/10/14 11:04:07;;;;;;;5.15;3.08;;;;;;;;;;5014554;28;20125;-82
2022/10/14 11:13:14;;;;;;;4.95;3.50;;;;;;;;;;5014588;28;20036;-82
2022/10/14 11:16:09;;;;;;;6.93;3.95;;;;;;;;;;5014310;28;20026;-81
2022/10/14 11:18:48;;;;;;;9.40;3.25;;;;;;;;;;5014508;28;20025;-81
2022/10/14 11:21:32;;;;;;;6.70;3.10;;;;;;;;;;5014572;28;20076;-81
2022/10/14 11:24:00;;;;;;;6.25;2.88;;;;;;;;;;5013092;28;20390;-81
2022/10/14 11:26:44;;;;;;;5.90;3.10;;;;;;;;;;5012928;28;20079;-82
2022/10/14 11:29:24;;;;;;;6.28;3.20;;;;;;;;;;5013074;28;20068;-82
2022/10/14 11:32:10;;;;;;;5.65;3.28;;;;;;;;;;4996526;28;20034;-82
2022/10/14 11:34:42;;;;;;;4.93;2.85;;;;;;;;;;5012991;28;20034;-81
2022/10/14 11:37:26;;;;;;;3.50;2.75;;;;;;;;;;5012757;28;20068;-82
2022/10/14 11:40:04;;;;;;;;;;;;;;;;;;5014525;28;20026;-83
2022/10/14 11:42:53;;;;;;;5.13;3.15;;;;;;;;;;5012055;28;19910;-81
2022/10/14 11:45:57;;;;;;;4.20;2.78;;;;;;;;;;5012644;28;20032;-81
2022/10/14 11:48:44;;;;;;;8.52;3.00;;;;;;;;;;5011635;28;20029;-81
2022/10/14 11:51:18;;;;;;;2.63;2.30;;;;;;;;;;5013536;28;20013;-80
2022/10/14 11:53:57;;;;;;;4.05;2.70;;;;;;;;;;5011691;28;20482;-80
2022/10/14 11:56:35;;;;;;;5.05;2.50;;;;;;;;;;4995504;28;20393;-80
2022/10/14 11:59:02;;;;;;;3.78;2.40;;;;;;;;;;5011768;28;20030;-80
2022/10/14 12:01:30;;;;;;;2.95;2.28;;;;;;;;;;5012261;28;20104;-80
2022/10/14 12:04:10;;;;;;;8.25;2.50;;;;;;;;;;5012952;28;20084;-82
2022/10/14 12:06:55;;;;;;;3.25;2.67;;;;;;;;;;5011947;28;20552;-80
2022/10/14 12:09:27;;;;;;;3.58;2.35;;;;;;;;;;5011875;28;20018;-81
2022/10/14 12:11:57;;;;;;;4.78;3.10;;;;;;;;;;4995309;28;20038;-80
2022/10/14 12:14:33;;;;;;;3.72;2.20;;;;;;;;;;5011942;28;20030;-82
2022/10/14 12:17:03;;;;;;;6.35;2.30;;;;;;;;;;5012881;28;20507;-81
2022/10/14 12:19:29;;;;;;;3.55;2.13;;;;;;;;;;5011466;28;20025;-80
2022/10/14 12:22:07;;;;;;;3.42;2.22;;;;;;;;;;5011683;28;20032;-81
2022/10/14 12:24:38;;;;;;;3.92;2.40;;;;;;;;;;5012725;28;20030;-81
2022/10/14 12:27:09;;;;;;;4.30;2.28;;;;;;;;;;5011805;28;20507;-81
2022/10/14 12:29:36;;;;;;;5.97;3.25;;;;;;;;;;5011646;28;20022;-82
2022/10/14 12:32:02;;;;;;;5.78;2.53;;;;;;;;;;5011745;28;20490;-79
2022/10/14 12:34:41;;;;;;;4.18;2.45;;;;;;;;;;5012814;28;20034;-81
2022/10/14 12:37:30;;;;;;;4.35;2.55;;;;;;;;;;5012851;28;20037;-81
2022/10/14 12:40:05;;;;;;;7.22;2.55;;;;;;;;;;5012664;28;20101;-81
2022/10/14 12:42:43;;;;;;;6.18;2.50;;;;;;;;;;5012850;28;20018;-81
2022/10/14 12:45:17;;;;;;;6.55;2.63;;;;;;;;;;5011315;28;20464;-81
2022/10/14 12:47:43;;;;;;;6.22;2.80;;;;;;;;;;5011350;28;20033;-81
2022/10/14 12:50:14;;;;;;;2.78;2.22;;;;;;;;;;5011155;28;20483;-81
2022/10/14 12:52:44;;;;;;;7.53;2.65;;;;;;;;;;5012205;28;20567;-81
2022/10/14 12:55:18;;;;;;;2.88;2.38;;;;;;;;;;5015031;28;20044;-83
2022/10/14 12:57:52;;;;;;;4.28;2.65;;;;;;;;;;4998693;28;20392;-84
2022/10/14 13:00:20;;;;;;;5.85;2.92;;;;;;;;;;4998565;28;20029;-83
2022/10/14 13:02:46;;;;;;;6.00;2.80;;;;;;;;;;5015000;28;20032;-83
2022/10/14 13:05:29;;;;;;;7.13;2.90;;;;;;;;;;5014657;28;20033;-83
2022/10/14 13:08:19;;;;;;;4.50;2.60;;;;;;;;;;5015114;28;20093;-83
2022/10/14 13:10:49;;;;;;;4.03;2.63;;;;;;;;;;5014695;28;20491;-81
2022/10/14 13:13:51;;;;;;;6.15;2.75;;;;;;;;;;5015937;28;20130;-82
2022/10/14 13:16:22;;;;;;;5.85;2.60;;;;;;;;;;5018312;28;20022;-82
2022/10/14 13:18:48;;;;;;;7.05;2.78;;;;;;;;;;5022317;28;20029;-83
2022/10/14 13:21:30;;;;;;;3.78;2.25;;;;;;;;;;5017879;28;20072;-84
2022/10/14 13:23:58;;;;;;;9.88;2.53;;;;;;;;;;5016223;28;20021;-83
2022/10/14 13:26:44;;;;;;;6.05;2.88;;;;;;;;;;5016625;28;20438;-84
2022/10/14 13:29:19;;;;;;;4.60;1.90;;;;;;;;;;5016748;28;20030;-83
2022/10/14 13:32:23;;;;;;;5.40;2.10;;;;;;;;;;5016466;28;20122;-82
2022/10/14 13:35:11;;;;;;;4.38;1.90;;;;;;;;;;5014457;28;20018;-80
2022/10/14 13:37:39;;;;;;;6.10;2.22;;;;;;;;;;5014611;28;20695;-83
2022/10/14 13:40:33;;;;;;;4.35;2.30;;;;;;;;;;5014348;28;20037;-83
2022/10/14 13:43:00;;;;;;;3.88;1.98;;;;;;;;;;5014400;28;20483;-84
2022/10/14 13:45:37;;;;;;;5.30;2.10;;;;;;;;;;5014252;28;20152;-82
2022/10/14 13:48:03;;;;;;;5.70;2.22;;;;;;;;;;5014049;28;20018;-83
2022/10/14 13:50:33;;;;;;;4.53;1.88;;;;;;;;;;4997656;28;20036;-82
2022/10/14 13:53:03;;;;;;;6.30;2.33;;;;;;;;;;5013806;28;20073;-83
2022/10/14 13:55:29;;;;;;;7.18;1.98;;;;;;;;;;5014155;28;20056;-83
2022/10/14 13:58:02;;;;;;;6.57;2.25;;;;;;;;;;5014027;28;20073;-83
2022/10/14 14:00:32;;;;;;;6.38;2.25;;;;;;;;;;5030489;28;20094;-83
2022/10/14 14:02:57;;;;;;;8.85;2.55;;;;;;;;;;5013807;28;20037;-83
2022/10/14 14:05:23;;;;;;;6.15;2.67;;;;;;;;;;5013104;28;20022;-83
2022/10/14 14:07:50;;;;;;;6.68;3.10;;;;;;;;;;4997301;28;20460;-82
2022/10/14 14:10:19;;;;;;;5.72;2.58;;;;;;;;;;4997284;28;20058;-82
2022/10/14 14:12:45;;;;;;;4.30;2.30;;;;;;;;;;5013752;28;20110;-82
2022/10/14 14:15:21;;;;;;;6.50;2.85;;;;;;;;;;5013630;28;20607;-83
2022/10/14 14:17:47;;;;;;;3.72;2.35;;;;;;;;;;5014532;28;20156;-83
2022/10/14 14:20:15;;;;;;;3.17;2.20;;;;;;;;;;5000541;28;20061;-83
2022/10/14 14:22:42;;;;;;;6.28;2.15;;;;;;;;;;4982553;28;20033;-82
2022/10/14 14:25:28;;;;;;;4.57;2.60;;;;;;;;;;5014971;28;20479;-83
2022/10/14 14:28:04;;;;;;;2.80;2.20;;;;;;;;;;4997269;28;20040;-82
2022/10/14 14:30:37;;;;;;;4.82;2.30;;;;;;;;;;5014877;28;20025;-84
2022/10/14 14:33:06;;;;;;;4.68;2.50;;;;;;;;;;5014273;28;20037;-83
2022/10/14 14:35:31;;;;;;;2.30;2.05;;;;;;;;;;5014549;28;20092;-84
2022/10/14 14:37:57;;;;;;;2.60;2.17;;;;;;;;;;5015597;28;20026;-83
2022/10/14 14:40:25;;;;;;;3.33;2.20;;;;;;;;;;4999270;28;20480;-84
2022/10/14 14:42:53;;;;;;;4.57;2.40;;;;;;;;;;4998048;28;20057;-83
2022/10/14 14:45:21;;;;;;;2.28;2.00;;;;;;;;;;5015004;28;20024;-82
2022/10/14 14:47:49;;;;;;;7.10;2.50;;;;;;;;;;5014398;28;20468;-82
2022/10/14 14:50:25;;;;;;;3.15;2.08;;;;;;;;;;5014116;28;20468;-83
2022/10/14 14:52:51;;;;;;;2.10;1.90;;;;;;;;;;5013861;28;20472;-83
2022/10/14 14:55:33;;;;;;;2.95;2.10;;;;;;;;;;5014928;28;20065;-82
2022/10/14 14:57:59;;;;;;;2.13;1.90;;;;;;;;;;5015331;28;20441;-83
2022/10/14 15:00:25;;;;;;;2.50;1.85;;;;;;;;;;4997849;28;20121;-83
2022/10/14 15:02:57;;;;;;;2.55;2.03;;;;;;;;;;5014745;28;20034;-82
2022/10/14 15:05:22;;;;;;;3.45;2.03;;;;;;;;;;5014825;28;20026;-83
2022/10/14 15:07:48;;;;;;;2.47;1.95;;;;;;;;;;4981506;28;20133;-83